Time;durP1;ratioP1;P1;durP2;ratioP2;P2;SDS_P1;SDS_P2;PMS_P1;PMS_P2;Temp;Humidity;BMP_temperature;BMP_pressure;BME280_temperature;BME280_humidity;BME280_pressure;Samples;Min_cycle;Max_cycle;Signal;HPM_P1;HPM_P2
2023/10/05 00:04:39;;;;;;;12.85;2.63;;;13.30;99.90;;;;;;6148093;22;93607;-74
2023/10/05 00:07:18;;;;;;;11.00;2.58;;;13.30;99.90;;;;;;6161545;22;92498;-74
2023/10/05 00:09:43;;;;;;;7.88;2.40;;;13.30;99.90;;;;;;6165657;22;92211;-74
2023/10/05 00:12:18;;;;;;;10.25;2.45;;;13.30;99.90;;;;;;6146417;22;93483;-74
2023/10/05 00:14:48;;;;;;;9.70;2.58;;;13.30;99.90;;;;;;6146298;22;96407;-74
2023/10/05 00:17:14;;;;;;;11.63;2.70;;;13.30;99.90;;;;;;6176551;22;92652;-74
2023/10/05 00:19:40;;;;;;;11.35;3.10;;;13.30;99.90;;;;;;6154288;22;91620;-74
2023/10/05 00:22:06;;;;;;;11.07;3.25;;;13.30;99.90;;;;;;6170296;22;94907;-74
2023/10/05 00:24:35;;;;;;;12.73;3.63;;;13.30;99.90;;;;;;6155331;22;92797;-74
2023/10/05 00:27:08;;;;;;;11.50;2.90;;;13.30;99.90;;;;;;6176709;22;93440;-74
2023/10/05 00:29:40;;;;;;;6.97;2.33;;;13.20;99.90;;;;;;6176361;22;92670;-74
2023/10/05 00:32:13;;;;;;;8.25;2.50;;;13.20;99.90;;;;;;6177000;22;94156;-74
2023/10/05 00:34:40;;;;;;;;;;;13.20;99.90;;;;;;6177016;22;95579;-74
2023/10/05 00:37:06;;;;;;;10.15;2.53;;;13.20;99.90;;;;;;6163385;22;92499;-74
2023/10/05 00:39:32;;;;;;;10.27;2.95;;;13.20;99.90;;;;;;6145252;22;92573;-74
2023/10/05 00:44:24;;;;;;;9.82;2.65;;;13.20;99.90;;;;;;6177220;22;92198;-75
2023/10/05 00:46:49;;;;;;;12.40;2.72;;;13.10;99.90;;;;;;6153532;22;92498;-74
2023/10/05 00:49:27;;;;;;;9.02;2.70;;;13.10;99.90;;;;;;6146369;22;92937;-74
2023/10/05 00:52:11;;;;;;;12.70;2.85;;;13.10;99.90;;;;;;6145141;22;94643;-74
2023/10/05 00:54:40;;;;;;;11.02;2.45;;;13.00;99.90;;;;;;6145588;22;97365;-74
2023/10/05 00:57:13;;;;;;;11.25;2.63;;;13.00;99.90;;;;;;6147405;22;92717;-73
2023/10/05 00:59:39;;;;;;;;;;;13.00;99.90;;;;;;6148149;22;92535;-75
2023/10/05 01:02:21;;;;;;;17.45;2.80;;;12.90;99.90;;;;;;6147824;22;94413;-75
2023/10/05 01:04:56;;;;;;;14.25;3.13;;;12.90;99.90;;;;;;6170829;22;93903;-76
2023/10/05 01:12:41;;;;;;;11.02;3.03;;;12.80;99.90;;;;;;6152318;22;92977;-74
2023/10/05 01:15:09;;;;;;;9.52;2.45;;;12.80;99.90;;;;;;6172864;22;94600;-74
2023/10/05 01:17:36;;;;;;;12.77;2.70;;;12.80;99.90;;;;;;6146552;22;93787;-74
2023/10/05 01:20:12;;;;;;;10.98;2.95;;;12.80;99.90;;;;;;6146168;22;92559;-74
2023/10/05 01:22:39;;;;;;;8.85;2.60;;;12.70;99.90;;;;;;6193561;22;96657;-74
2023/10/05 01:25:07;;;;;;;13.40;3.05;;;12.70;99.90;;;;;;6178082;22;93278;-74
2023/10/05 01:27:33;;;;;;;11.32;2.45;;;12.60;99.90;;;;;;6168283;22;92590;-74
2023/10/05 01:30:00;;;;;;;9.88;2.55;;;12.60;99.90;;;;;;6145113;22;92787;-74
2023/10/05 01:32:26;;;;;;;15.90;2.60;;;12.60;99.90;;;;;;6146078;22;94507;-74
2023/10/05 01:34:52;;;;;;;9.40;2.60;;;12.60;99.90;;;;;;6147960;22;92863;-74
2023/10/05 01:37:23;;;;;;;8.73;2.85;;;12.60;99.90;;;;;;6165119;22;92424;-74
2023/10/05 01:39:49;;;;;;;12.18;3.15;;;12.60;99.90;;;;;;6165419;22;92477;-74
2023/10/05 01:42:16;;;;;;;14.07;2.30;;;12.50;99.90;;;;;;6146034;22;93666;-74
2023/10/05 01:44:47;;;;;;;7.90;2.30;;;12.50;99.90;;;;;;6147061;22;95406;-74
2023/10/05 01:47:22;;;;;;;12.73;2.92;;;12.50;99.90;;;;;;6176287;22;92526;-75
2023/10/05 01:49:50;;;;;;;12.63;3.35;;;12.40;99.90;;;;;;6176095;22;92177;-75
2023/10/05 01:52:20;;;;;;;9.07;2.25;;;12.40;99.90;;;;;;6147517;22;93852;-74
2023/10/05 01:54:46;;;;;;;10.02;2.35;;;12.40;99.90;;;;;;6147801;22;92538;-74
2023/10/05 01:57:16;;;;;;;13.48;3.17;;;12.30;99.90;;;;;;6150169;22;92160;-74
2023/10/05 01:59:43;;;;;;;11.10;3.10;;;12.30;99.90;;;;;;6176833;22;91652;-74
2023/10/05 02:02:10;;;;;;;12.18;2.53;;;12.30;99.90;;;;;;6149184;22;92561;-75
2023/10/05 02:04:39;;;;;;;10.23;2.45;;;12.20;99.90;;;;;;6147316;22;92442;-75
2023/10/05 02:07:05;;;;;;;9.07;2.28;;;12.20;99.90;;;;;;6146037;22;94649;-74
2023/10/05 02:09:31;;;;;;;17.15;3.40;;;12.20;99.90;;;;;;6152559;22;92451;-74
2023/10/05 02:12:02;;;;;;;16.67;3.30;;;12.20;99.90;;;;;;6175098;22;93143;-74
2023/10/05 02:14:30;;;;;;;9.73;2.55;;;12.20;99.90;;;;;;6171148;22;96026;-74
2023/10/05 02:16:57;;;;;;;12.65;2.70;;;12.20;99.90;;;;;;6170611;22;92226;-74
2023/10/05 02:19:23;;;;;;;11.98;2.53;;;12.20;99.90;;;;;;6145137;22;92547;-74
2023/10/05 02:21:53;;;;;;;10.93;2.50;;;12.20;99.90;;;;;;6145010;22;94107;-74
2023/10/05 02:24:21;;;;;;;12.27;2.67;;;12.20;99.90;;;;;;6145466;22;92278;-74
2023/10/05 02:29:26;;;;;;;9.00;2.70;;;12.30;99.90;;;;;;6177389;22;93070;-74
2023/10/05 02:34:22;;;;;;;13.95;2.97;;;12.30;99.90;;;;;;6176788;22;94294;-74
2023/10/05 02:36:48;;;;;;;17.80;2.97;;;12.30;99.90;;;;;;6176787;22;92146;-74
2023/10/05 02:39:14;;;;;;;12.18;3.50;;;12.40;99.90;;;;;;6174465;22;100840;-74
2023/10/05 02:41:43;;;;;;;10.90;2.65;;;12.40;99.90;;;;;;6177393;22;93834;-76
2023/10/05 02:46:47;;;;;;;14.63;3.05;;;12.40;99.90;;;;;;6146526;22;92707;-74
2023/10/05 02:49:18;;;;;;;15.93;3.00;;;12.40;99.90;;;;;;6145292;22;91879;-75
2023/10/05 02:51:45;;;;;;;7.90;2.65;;;12.40;99.90;;;;;;6155073;22;92380;-74
2023/10/05 02:54:12;;;;;;;17.30;3.03;;;12.40;99.90;;;;;;6170514;22;95880;-74
2023/10/05 02:56:40;;;;;;;7.53;2.38;;;12.50;99.90;;;;;;6147701;22;93505;-75
2023/10/05 02:59:14;;;;;;;10.63;3.03;;;12.50;99.90;;;;;;6148154;22;92669;-74
2023/10/05 03:01:41;;;;;;;8.73;2.30;;;12.60;99.90;;;;;;6169280;22;93082;-74
2023/10/05 03:06:39;;;;;;;12.05;2.30;;;12.60;99.90;;;;;;6148120;22;92848;-74
2023/10/05 03:09:09;;;;;;;10.95;2.33;;;12.60;99.90;;;;;;6149866;22;92543;-76
2023/10/05 03:11:39;;;;;;;7.43;2.25;;;12.60;99.90;;;;;;6177929;22;93075;-74
2023/10/05 03:14:06;;;;;;;10.50;3.10;;;12.70;99.90;;;;;;6153120;22;93110;-75
2023/10/05 03:16:43;;;;;;;9.75;2.55;;;12.70;99.90;;;;;;6148254;22;92471;-75
2023/10/05 03:19:22;;;;;;;12.80;2.38;;;12.70;99.90;;;;;;6163543;22;92049;-74
2023/10/05 03:21:50;;;;;;;10.88;2.67;;;12.80;99.90;;;;;;6165052;22;95349;-74
2023/10/05 03:24:19;;;;;;;14.68;3.45;;;12.80;99.90;;;;;;6147545;22;94336;-74
2023/10/05 03:26:49;;;;;;;14.43;3.35;;;12.80;99.90;;;;;;6173607;22;92822;-74
2023/10/05 03:29:16;;;;;;;11.02;2.72;;;12.80;99.90;;;;;;6177703;22;92901;-75
2023/10/05 03:31:55;;;;;;;11.73;2.15;;;12.80;99.90;;;;;;6154711;22;96182;-75
2023/10/05 03:34:25;;;;;;;12.32;2.40;;;12.90;99.90;;;;;;6148584;22;93033;-74
2023/10/05 03:36:52;;;;;;;10.93;2.45;;;12.90;99.90;;;;;;6147075;22;92681;-74
2023/10/05 03:39:17;;;;;;;10.88;2.72;;;13.00;99.90;;;;;;6150535;22;91707;-74
2023/10/05 03:41:47;;;;;;;11.07;2.65;;;12.90;99.90;;;;;;6177265;22;93999;-74
2023/10/05 03:44:15;;;;;;;7.55;2.22;;;13.00;99.90;;;;;;6148636;22;93114;-74
2023/10/05 03:46:46;;;;;;;12.18;2.33;;;13.00;99.90;;;;;;6146892;22;93469;-75
2023/10/05 03:49:15;;;;;;;6.80;1.98;;;13.00;99.90;;;;;;6162729;22;92008;-74
2023/10/05 03:51:50;;;;;;;7.70;1.95;;;13.10;99.90;;;;;;6190874;22;95031;-74
2023/10/05 03:54:26;;;;;;;15.73;2.10;;;13.10;99.90;;;;;;6146816;22;93378;-74
2023/10/05 03:57:04;;;;;;;8.10;1.90;;;13.10;99.90;;;;;;6148288;22;92385;-74
2023/10/05 03:59:33;;;;;;;10.85;2.38;;;13.10;99.90;;;;;;6178489;22;92537;-74
2023/10/05 04:02:00;;;;;;;9.82;2.40;;;13.10;99.90;;;;;;6177026;22;100598;-75
2023/10/05 04:04:33;;;;;;;7.85;2.05;;;13.20;99.90;;;;;;6158377;22;92826;-74
2023/10/05 04:06:59;;;;;;;10.43;2.50;;;13.20;99.90;;;;;;6148245;22;92655;-74
2023/10/05 04:09:28;;;;;;;12.30;2.22;;;13.20;99.90;;;;;;6154270;22;92205;-75
2023/10/05 04:11:57;;;;;;;10.07;2.35;;;13.20;99.90;;;;;;6177271;22;93703;-74
2023/10/05 04:14:26;;;;;;;8.70;1.77;;;13.20;99.90;;;;;;6176776;22;98054;-74
2023/10/05 04:16:53;;;;;;;9.25;2.35;;;13.20;99.90;;;;;;6153500;22;92600;-74
2023/10/05 04:19:19;;;;;;;12.20;2.28;;;13.20;99.90;;;;;;6147317;22;92243;-75
2023/10/05 04:21:45;;;;;;;7.80;1.80;;;13.20;99.90;;;;;;6157557;22;94245;-74
2023/10/05 04:24:14;;;;;;;10.93;2.72;;;13.20;99.90;;;;;;6198162;22;96533;-74
2023/10/05 04:26:45;;;;;;;7.60;1.85;;;13.20;99.90;;;;;;6148695;22;92556;-75
2023/10/05 04:29:20;;;;;;;4.88;1.95;;;13.20;99.90;;;;;;6147796;22;91875;-75
2023/10/05 04:31:49;;;;;;;9.60;2.25;;;13.20;99.90;;;;;;6171334;22;93381;-75
2023/10/05 04:34:18;;;;;;;10.65;2.53;;;13.20;99.90;;;;;;6160995;22;92506;-74
2023/10/05 04:36:54;;;;;;;6.68;2.33;;;13.20;99.90;;;;;;6147723;22;94898;-74
2023/10/05 04:39:27;;;;;;;10.90;2.63;;;13.20;99.90;;;;;;6145119;22;92382;-74
2023/10/05 04:41:55;;;;;;;10.60;2.28;;;13.20;99.90;;;;;;6149168;22;93290;-74
2023/10/05 04:44:20;;;;;;;12.00;2.28;;;13.10;99.90;;;;;;6176534;22;99175;-74
2023/10/05 04:46:49;;;;;;;7.63;2.30;;;13.10;99.90;;;;;;6177857;22;92251;-74
2023/10/05 04:49:16;;;;;;;13.15;2.90;;;13.20;99.90;;;;;;6145397;22;93141;-75
2023/10/05 04:51:44;;;;;;;7.63;2.30;;;13.10;99.90;;;;;;6145803;22;93743;-74
2023/10/05 04:54:10;;;;;;;15.10;2.92;;;13.10;99.90;;;;;;6149879;22;92821;-74
2023/10/05 04:56:40;;;;;;;11.75;2.92;;;13.10;99.90;;;;;;6202784;22;92429;-75
2023/10/05 05:07:00;;;;;;;11.73;2.47;;;13.00;99.90;;;;;;6164173;22;92422;-74
2023/10/05 05:09:41;;;;;;;16.77;4.07;;;13.00;99.90;;;;;;6147512;22;92551;-74
2023/10/05 05:12:09;;;;;;;8.25;2.42;;;13.00;99.90;;;;;;6147494;22;96497;-74
2023/10/05 05:14:43;;;;;;;18.40;2.85;;;12.90;99.90;;;;;;6176300;22;93370;-75
2023/10/05 05:17:11;;;;;;;;;;;12.90;99.90;;;;;;6148992;22;92274;-74
2023/10/05 05:19:40;;;;;;;6.60;2.22;;;12.90;99.90;;;;;;6148634;22;91802;-74
2023/10/05 05:22:08;;;;;;;10.05;2.30;;;12.90;99.90;;;;;;6162222;22;93287;-74
2023/10/05 05:24:35;;;;;;;9.82;2.58;;;12.90;99.90;;;;;;6167712;22;96484;-74
2023/10/05 05:27:03;;;;;;;12.07;2.35;;;12.90;99.90;;;;;;6146796;22;93303;-75
2023/10/05 05:29:35;;;;;;;9.32;2.25;;;12.90;99.90;;;;;;6147145;22;92653;-74
2023/10/05 05:32:10;;;;;;;8.88;3.08;;;12.80;99.90;;;;;;6173754;22;93075;-74
2023/10/05 05:34:36;;;;;;;10.30;3.00;;;12.80;99.90;;;;;;6156214;22;93271;-74
2023/10/05 05:37:04;;;;;;;9.85;2.47;;;12.80;99.90;;;;;;6147523;22;92540;-74
2023/10/05 05:39:33;;;;;;;10.70;2.47;;;12.80;99.90;;;;;;6154889;22;92051;-74
2023/10/05 05:42:06;;;;;;;14.68;3.22;;;12.80;99.90;;;;;;6175358;22;92871;-74
2023/10/05 05:44:34;;;;;;;14.32;2.67;;;12.70;99.90;;;;;;6147782;22;92325;-75
2023/10/05 05:47:08;;;;;;;15.35;3.33;;;12.80;99.90;;;;;;6146257;22;92936;-74
2023/10/05 05:49:34;;;;;;;10.63;2.75;;;12.70;99.90;;;;;;6147768;22;92137;-74
2023/10/05 05:51:59;;;;;;;9.63;2.63;;;12.70;99.90;;;;;;6146498;22;94158;-74
2023/10/05 05:54:31;;;;;;;19.45;3.92;;;12.70;99.90;;;;;;6146439;22;97276;-73
2023/10/05 05:56:57;;;;;;;10.18;2.45;;;12.70;99.90;;;;;;6147240;22;92066;-74
2023/10/05 05:59:23;;;;;;;12.32;2.60;;;12.70;99.90;;;;;;6148726;22;92400;-74
2023/10/05 06:01:50;;;;;;;10.65;2.83;;;12.70;99.90;;;;;;6147993;22;93305;-75
2023/10/05 06:04:16;;;;;;;8.48;2.40;;;12.70;99.90;;;;;;6164785;22;92998;-74
2023/10/05 06:06:44;;;;;;;12.02;3.25;;;12.70;99.90;;;;;;6167567;22;92591;-75
2023/10/05 06:09:11;;;;;;;13.95;3.60;;;12.70;99.90;;;;;;6148329;22;91935;-74
2023/10/05 06:11:40;;;;;;;11.23;3.00;;;12.70;99.90;;;;;;6147582;22;93031;-74
2023/10/05 06:14:06;;;;;;;16.88;3.78;;;12.70;99.90;;;;;;6173155;22;92803;-73
2023/10/05 06:16:34;;;;;;;10.55;2.90;;;12.70;99.90;;;;;;6155202;22;93288;-74
2023/10/05 06:19:00;;;;;;;13.27;2.85;;;12.70;99.90;;;;;;6146072;22;93031;-74
2023/10/05 06:21:26;;;;;;;11.30;2.58;;;12.70;99.90;;;;;;6151702;22;94240;-74
2023/10/05 06:23:52;;;;;;;16.08;3.08;;;12.70;99.90;;;;;;6175513;22;92842;-73
2023/10/05 06:26:17;;;;;;;16.02;2.78;;;12.70;99.90;;;;;;6146502;22;92566;-74
2023/10/05 06:28:44;;;;;;;10.18;2.67;;;12.70;99.90;;;;;;6143333;22;92877;-73
2023/10/05 06:31:16;;;;;;;7.82;2.75;;;12.70;99.90;;;;;;6161963;22;92522;-74
2023/10/05 06:33:42;;;;;;;9.82;2.78;;;12.80;99.90;;;;;;6191813;22;92951;-74
2023/10/05 06:36:08;;;;;;;11.07;2.95;;;12.80;99.90;;;;;;6146768;22;92108;-77
2023/10/05 06:38:35;;;;;;;16.02;3.08;;;12.80;99.90;;;;;;6150141;22;92390;-74
2023/10/05 06:41:01;;;;;;;11.73;3.63;;;12.80;99.90;;;;;;6148244;22;94898;-74
2023/10/05 06:43:27;;;;;;;11.85;3.35;;;12.90;99.90;;;;;;6167145;22;93864;-74
2023/10/05 06:45:53;;;;;;;12.82;4.25;;;12.90;99.90;;;;;;6166820;22;92174;-75
2023/10/05 06:48:18;;;;;;;9.45;3.38;;;12.90;99.90;;;;;;6148893;22;92380;-75
2023/10/05 06:50:46;;;;;;;13.48;3.30;;;12.90;99.90;;;;;;6149438;22;92686;-74
2023/10/05 06:53:12;;;;;;;14.85;3.72;;;13.00;99.90;;;;;;6144753;22;94616;-75
2023/10/05 06:55:41;;;;;;;21.85;4.20;;;13.00;99.90;;;;;;6168606;22;92719;-74
2023/10/05 06:58:07;;;;;;;14.32;3.42;;;13.10;99.90;;;;;;6162664;22;91812;-74
2023/10/05 07:00:33;;;;;;;12.63;2.90;;;13.10;99.90;;;;;;6146880;22;93753;-74
2023/10/05 07:02:59;;;;;;;14.65;2.92;;;13.10;99.90;;;;;;6147554;22;96206;-73
2023/10/05 07:05:28;;;;;;;10.85;2.85;;;13.20;99.90;;;;;;6177158;22;93362;-74
2023/10/05 07:07:53;;;;;;;14.35;3.13;;;13.20;99.90;;;;;;6153066;22;92459;-74
2023/10/05 07:10:20;;;;;;;11.38;2.53;;;13.30;99.90;;;;;;6147421;22;93803;-74
2023/10/05 07:12:46;;;;;;;12.60;3.08;;;13.30;99.90;;;;;;6145310;22;94728;-74
2023/10/05 07:15:17;;;;;;;9.38;3.28;;;13.40;99.90;;;;;;6147708;22;93096;-74
2023/10/05 07:17:43;;;;;;;12.85;3.25;;;13.40;99.90;;;;;;6147099;22;92455;-74
2023/10/05 07:20:12;;;;;;;11.90;2.40;;;13.50;99.90;;;;;;6176562;22;93134;-75
2023/10/05 07:22:41;;;;;;;13.15;2.80;;;13.50;99.90;;;;;;6153752;22;93562;-73
2023/10/05 07:25:09;;;;;;;11.35;2.95;;;13.50;99.90;;;;;;6146031;22;92468;-74
2023/10/05 07:27:35;;;;;;;15.07;2.85;;;13.60;99.90;;;;;;6145793;22;92328;-74
2023/10/05 07:30:06;;;;;;;12.73;2.80;;;13.70;99.90;;;;;;6144694;22;94006;-73
2023/10/05 07:32:35;;;;;;;12.02;2.35;;;13.70;99.90;;;;;;6148129;22;94204;-74
2023/10/05 07:35:02;;;;;;;14.30;2.83;;;13.80;99.90;;;;;;6147042;22;92530;-74
2023/10/05 07:37:28;;;;;;;16.85;3.15;;;13.80;99.90;;;;;;6164678;22;92467;-75
2023/10/05 07:39:55;;;;;;;11.60;2.65;;;13.90;99.90;;;;;;6163332;22;93191;-74
2023/10/05 07:42:22;;;;;;;12.43;2.97;;;13.90;99.90;;;;;;6145999;22;93465;-74
2023/10/05 07:44:47;;;;;;;13.80;3.22;;;13.90;99.90;;;;;;6148525;22;92065;-75
2023/10/05 07:47:14;;;;;;;9.63;2.83;;;14.00;99.90;;;;;;6176811;22;91725;-74
2023/10/05 07:49:41;;;;;;;13.32;2.55;;;14.00;99.90;;;;;;6155894;22;94241;-74
2023/10/05 07:52:09;;;;;;;8.68;2.85;;;14.10;99.90;;;;;;6143609;22;95984;-74
2023/10/05 07:54:38;;;;;;;13.95;4.32;;;14.10;99.90;;;;;;6145547;22;93166;-74
2023/10/05 07:57:09;;;;;;;9.55;3.40;;;14.20;99.90;;;;;;6145812;22;92618;-78
2023/10/05 07:59:35;;;;;;;9.20;3.25;;;14.20;99.90;;;;;;6147729;22;93857;-74
2023/10/05 08:02:01;;;;;;;11.05;2.88;;;14.30;99.90;;;;;;6173905;22;92707;-75
2023/10/05 08:04:27;;;;;;;14.05;2.88;;;14.30;99.90;;;;;;6157716;22;92705;-74
2023/10/05 08:06:54;;;;;;;11.95;3.50;;;14.40;99.90;;;;;;6146150;22;92643;-75
2023/10/05 08:09:23;;;;;;;10.48;3.20;;;14.40;99.90;;;;;;6150771;22;93367;-75
2023/10/05 08:11:53;;;;;;;15.23;4.07;;;14.50;99.90;;;;;;6176725;22;96349;-76
2023/10/05 08:14:20;;;;;;;10.55;2.78;;;14.50;99.90;;;;;;6148557;22;92463;-76
2023/10/05 08:16:47;;;;;;;10.02;3.60;;;14.60;99.90;;;;;;6147300;22;92627;-75
2023/10/05 08:19:15;;;;;;;13.45;5.47;;;14.60;99.90;;;;;;6162807;22;93654;-74
2023/10/05 08:21:41;;;;;;;14.05;3.08;;;14.70;99.90;;;;;;6166847;22;94258;-75
2023/10/05 08:24:08;;;;;;;10.52;2.53;;;14.70;99.90;;;;;;6148604;22;92138;-75
2023/10/05 08:26:33;;;;;;;8.73;2.53;;;14.80;99.90;;;;;;6148882;22;92077;-76
2023/10/05 08:28:59;;;;;;;14.25;2.83;;;14.80;99.90;;;;;;6145771;22;97022;-75
2023/10/05 08:31:25;;;;;;;9.45;2.72;;;14.80;99.90;;;;;;6147898;22;93001;-75
2023/10/05 08:33:55;;;;;;;16.42;3.08;;;14.90;99.90;;;;;;6148260;22;92780;-75
2023/10/05 08:36:21;;;;;;;14.40;3.00;;;14.90;99.90;;;;;;6178797;22;91631;-75
2023/10/05 08:38:54;;;;;;;9.05;2.70;;;14.90;99.90;;;;;;6178750;22;94310;-74
2023/10/05 08:41:32;;;;;;;8.43;2.70;;;14.90;99.90;;;;;;6178280;22;97045;-74
2023/10/05 08:44:00;;;;;;;12.02;3.22;;;14.90;99.90;;;;;;6177187;22;93077;-75
2023/10/05 08:46:31;;;;;;;14.35;2.80;;;14.90;99.90;;;;;;6178067;22;92105;-74
2023/10/05 08:48:57;;;;;;;10.45;2.88;;;15.00;99.90;;;;;;6178026;22;92816;-74
2023/10/05 08:51:24;;;;;;;10.27;2.30;;;15.00;99.90;;;;;;6176748;22;92512;-74
2023/10/05 08:53:55;;;;;;;9.90;2.63;;;15.00;99.90;;;;;;6177044;22;92525;-75
2023/10/05 08:56:22;;;;;;;9.68;2.13;;;15.10;99.90;;;;;;6177422;22;92390;-75
2023/10/05 08:58:49;;;;;;;9.27;2.85;;;15.10;99.90;;;;;;6175927;22;93317;-75
2023/10/05 09:01:45;;;;;;;11.40;2.55;;;15.20;99.90;;;;;;6145570;22;92107;-74
2023/10/05 09:07:08;;;;;;;16.17;2.75;;;15.30;99.90;;;;;;6154860;22;92600;-75
2023/10/05 09:09:58;;;;;;;10.93;3.00;;;15.30;99.90;;;;;;6166849;22;93765;-74
2023/10/05 09:12:35;;;;;;;9.55;2.38;;;15.40;99.90;;;;;;6145329;22;93385;-75
2023/10/05 09:15:14;;;;;;;7.22;2.15;;;15.40;99.90;;;;;;6144506;22;93314;-75
2023/10/05 09:18:42;;;;;;;16.63;3.50;;;15.50;99.90;;;;;;6147164;22;92406;-74
2023/10/05 09:20:51;;;;;;;11.55;2.60;;;15.60;99.90;;;;;;6138534;22;98948;-75
2023/10/05 09:23:20;;;;;;;9.98;2.22;;;15.70;99.90;;;;;;6171641;22;96057;-74
2023/10/05 09:25:46;;;;;;;15.23;2.97;;;15.70;99.90;;;;;;6149997;22;92846;-74
2023/10/05 09:28:28;;;;;;;10.98;2.35;;;15.70;99.90;;;;;;6149031;22;92105;-75
2023/10/05 09:30:59;;;;;;;12.88;2.65;;;15.70;99.90;;;;;;6145550;22;96733;-74
2023/10/05 09:33:34;;;;;;;10.45;2.47;;;15.70;99.90;;;;;;6145771;22;96072;-75
2023/10/05 09:36:22;;;;;;;5.82;2.10;;;15.70;99.90;;;;;;6143995;22;93311;-75
2023/10/05 09:38:51;;;;;;;9.88;2.80;;;15.80;99.90;;;;;;6146621;22;92477;-75
2023/10/05 09:41:18;;;;;;;12.98;2.60;;;15.70;99.90;;;;;;6144404;22;95662;-76
2023/10/05 09:43:44;;;;;;;8.45;2.38;;;15.80;99.90;;;;;;6145192;22;96159;-74
2023/10/05 09:46:10;;;;;;;14.85;2.40;;;15.90;99.90;;;;;;6146730;22;92285;-75
2023/10/05 09:48:43;;;;;;;12.02;2.35;;;15.90;99.90;;;;;;6146898;22;92629;-76
2023/10/05 09:51:11;;;;;;;11.33;2.43;;;16.00;99.90;;;;;;6147396;22;96886;-77
2023/10/05 09:53:44;;;;;;;10.77;2.95;;;16.00;99.90;;;;;;6151298;22;92909;-77
2023/10/05 09:56:11;;;;;;;14.48;2.33;;;16.00;99.90;;;;;;6179024;22;92196;-77
2023/10/05 09:58:39;;;;;;;11.80;2.63;;;16.00;99.90;;;;;;6157898;22;92648;-78
2023/10/05 10:01:20;;;;;;;10.25;2.63;;;16.00;99.90;;;;;;6171492;22;97710;-77
2023/10/05 10:03:47;;;;;;;7.97;2.30;;;16.00;99.90;;;;;;6145363;22;96928;-78
2023/10/05 10:06:18;;;;;;;9.50;2.25;;;16.00;99.90;;;;;;6147439;22;92695;-77
2023/10/05 10:08:57;;;;;;;13.18;2.75;;;16.00;99.90;;;;;;6147456;22;92193;-78
2023/10/05 10:11:31;;;;;;;11.18;2.55;;;16.00;99.90;;;;;;6148803;22;98140;-77
2023/10/05 10:14:01;;;;;;;20.80;2.88;;;16.10;99.90;;;;;;6145811;22;96693;-79
2023/10/05 10:16:31;;;;;;;9.57;2.72;;;16.10;99.90;;;;;;6165957;22;92681;-77
2023/10/05 10:19:07;;;;;;;11.68;3.47;;;16.10;99.90;;;;;;6189779;22;91742;-77
2023/10/05 10:21:35;;;;;;;12.40;3.72;;;16.10;99.90;;;;;;6145449;22;95995;-77
2023/10/05 10:24:03;;;;;;;11.93;3.63;;;16.10;99.90;;;;;;6146346;22;96571;-76
2023/10/05 10:26:30;;;;;;;13.48;2.67;;;16.10;99.90;;;;;;6149429;22;93511;-77
2023/10/05 10:28:57;;;;;;;15.07;2.92;;;16.20;99.90;;;;;;6147192;22;92286;-77
2023/10/05 10:31:30;;;;;;;13.02;2.75;;;16.20;99.90;;;;;;6167154;22;94188;-77
2023/10/05 10:34:05;;;;;;;15.32;4.60;;;16.30;99.90;;;;;;6163791;22;95311;-75
2023/10/05 10:36:51;;;;;;;12.35;2.58;;;16.30;99.90;;;;;;6146690;22;92527;-77
2023/10/05 10:39:24;;;;;;;12.27;2.70;;;16.30;99.90;;;;;;6149423;22;92588;-77
2023/10/05 10:42:01;;;;;;;6.97;1.98;;;16.30;99.90;;;;;;6178821;22;92720;-77
2023/10/05 10:44:27;;;;;;;12.55;2.75;;;16.40;99.90;;;;;;6177491;22;97524;-77
2023/10/05 10:47:12;;;;;;;15.48;3.03;;;16.40;99.90;;;;;;6152741;22;92633;-75
2023/10/05 10:49:40;;;;;;;8.15;1.98;;;16.50;99.90;;;;;;6147198;22;92304;-77
2023/10/05 10:52:09;;;;;;;11.25;2.40;;;16.50;99.90;;;;;;6144740;22;98225;-77
2023/10/05 10:54:45;;;;;;;12.70;2.55;;;16.50;99.90;;;;;;6148095;22;92692;-77
2023/10/05 10:57:20;;;;;;;11.73;2.50;;;16.60;99.90;;;;;;6147423;22;92671;-77
2023/10/05 10:59:46;;;;;;;10.57;2.33;;;16.70;99.90;;;;;;6149160;22;92312;-77
2023/10/05 11:02:38;;;;;;;12.93;2.47;;;16.80;99.90;;;;;;6146038;22;96420;-78
2023/10/05 11:05:05;;;;;;;15.98;3.15;;;16.90;99.90;;;;;;6145598;22;96264;-77
2023/10/05 11:07:34;;;;;;;10.60;2.63;;;16.90;99.90;;;;;;6149023;22;93115;-77
2023/10/05 11:10:02;;;;;;;12.45;3.58;;;17.00;99.90;;;;;;6146715;22;91517;-77
2023/10/05 11:12:29;;;;;;;10.20;2.47;;;17.10;99.90;;;;;;6146596;22;93304;-76
2023/10/05 11:15:14;;;;;;;14.35;2.30;;;17.30;99.90;;;;;;6147360;22;95520;-78
2023/10/05 11:17:45;;;;;;;11.32;3.30;;;17.50;99.80;;;;;;6148889;22;93538;-79
2023/10/05 11:20:33;;;;;;;8.43;2.42;;;17.50;99.00;;;;;;6177148;22;92487;-78
2023/10/05 11:23:03;;;;;;;8.73;2.30;;;17.60;98.70;;;;;;6150405;22;96743;-77
2023/10/05 11:25:32;;;;;;;9.05;2.28;;;17.70;98.90;;;;;;6144668;22;92821;-74
2023/10/05 11:28:00;;;;;;;12.70;3.13;;;17.70;99.00;;;;;;6147193;22;92294;-74
2023/10/05 11:30:41;;;;;;;9.63;2.63;;;17.80;98.40;;;;;;6145602;22;92521;-74
2023/10/05 11:33:15;;;;;;;10.15;2.15;;;17.70;98.50;;;;;;6145499;22;96401;-74
2023/10/05 11:35:49;;;;;;;9.50;2.22;;;17.70;98.70;;;;;;6147221;22;93292;-74
2023/10/05 11:38:19;;;;;;;11.75;2.00;;;17.80;98.10;;;;;;6146070;22;92792;-74
2023/10/05 11:40:49;;;;;;;4.70;1.63;;;17.90;98.70;;;;;;6144944;22;92734;-74
2023/10/05 11:43:20;;;;;;;10.48;2.10;;;18.10;98.00;;;;;;6147181;22;94056;-75
2023/10/05 11:46:17;;;;;;;10.93;1.88;;;18.20;98.40;;;;;;6181926;22;96908;-75
2023/10/05 11:48:55;;;;;;;8.45;1.60;;;18.40;96.90;;;;;;6166881;22;92163;-75
2023/10/05 11:51:41;;;;;;;9.00;1.83;;;18.50;96.90;;;;;;6144746;22;92356;-75
2023/10/05 11:54:08;;;;;;;7.30;1.95;;;18.70;96.50;;;;;;6144200;22;96489;-75
2023/10/05 11:56:33;;;;;;;9.27;1.75;;;18.80;96.30;;;;;;6146893;22;92885;-76
2023/10/05 11:59:00;;;;;;;9.00;1.70;;;18.90;96.70;;;;;;6171160;22;92704;-75
2023/10/05 12:01:32;;;;;;;11.75;1.63;;;18.90;96.20;;;;;;6157222;22;91848;-77
2023/10/05 12:03:58;;;;;;;10.98;2.28;;;19.00;96.10;;;;;;6145892;22;93229;-75
2023/10/05 12:06:25;;;;;;;7.78;2.20;;;19.00;95.70;;;;;;6152460;22;92496;-76
2023/10/05 12:09:00;;;;;;;8.32;2.00;;;18.90;95.00;;;;;;6177284;22;93683;-76
2023/10/05 12:11:27;;;;;;;8.13;1.80;;;18.90;95.20;;;;;;6178672;22;92472;-76
2023/10/05 12:13:56;;;;;;;7.32;1.75;;;18.90;95.10;;;;;;6153969;22;93622;-75
2023/10/05 12:16:27;;;;;;;6.38;1.83;;;19.00;94.70;;;;;;6171003;22;96847;-77
2023/10/05 12:18:54;;;;;;;9.80;2.10;;;19.10;94.70;;;;;;6160431;22;92700;-74
2023/10/05 12:21:21;;;;;;;6.47;1.60;;;19.10;95.00;;;;;;6171140;22;92265;-76
2023/10/05 12:23:47;;;;;;;9.55;1.83;;;19.30;95.70;;;;;;6145713;22;96138;-76
2023/10/05 12:26:15;;;;;;;9.98;1.85;;;19.50;94.40;;;;;;6146763;22;93688;-76
2023/10/05 12:28:41;;;;;;;10.20;1.98;;;19.60;94.50;;;;;;6145815;22;92582;-77
2023/10/05 12:31:09;;;;;;;8.05;2.33;;;19.80;94.70;;;;;;6145256;22;92200;-75
2023/10/05 12:33:36;;;;;;;8.55;2.20;;;19.90;94.10;;;;;;6146249;22;93972;-76
2023/10/05 12:36:07;;;;;;;9.30;1.70;;;19.90;92.90;;;;;;6147367;22;97465;-77
2023/10/05 12:38:33;;;;;;;10.95;1.88;;;20.00;92.30;;;;;;6178993;22;93389;-77
2023/10/05 12:41:12;;;;;;;7.22;1.63;;;20.10;92.20;;;;;;6174879;22;92550;-76
2023/10/05 12:43:39;;;;;;;11.77;2.92;;;20.10;91.30;;;;;;6147472;22;92460;-76
2023/10/05 12:46:10;;;;;;;6.18;1.90;;;20.00;91.50;;;;;;6146670;22;96120;-76
2023/10/05 12:48:37;;;;;;;9.05;2.03;;;20.00;90.70;;;;;;6147106;22;92451;-76
2023/10/05 12:51:05;;;;;;;4.13;1.42;;;19.90;91.50;;;;;;6147756;22;91822;-77
2023/10/05 12:53:34;;;;;;;8.70;1.80;;;20.00;91.90;;;;;;6149638;22;93080;-77
2023/10/05 12:56:01;;;;;;;6.03;1.30;;;20.00;91.60;;;;;;6148200;22;96220;-77
2023/10/05 12:58:28;;;;;;;5.95;1.42;;;20.00;91.50;;;;;;6148498;22;93629;-76
2023/10/05 13:00:53;;;;;;;5.70;1.27;;;20.20;91.60;;;;;;6149930;22;92230;-78
2023/10/05 13:03:24;;;;;;;5.13;1.10;;;20.20;91.20;;;;;;6173367;22;95609;-77
2023/10/05 13:05:51;;;;;;;8.77;1.98;;;20.20;91.50;;;;;;6150209;22;93143;-77
2023/10/05 13:08:17;;;;;;;7.32;1.98;;;20.20;90.60;;;;;;6148548;22;92874;-77
2023/10/05 13:10:44;;;;;;;7.03;1.55;;;20.20;90.60;;;;;;6147803;22;93204;-77
2023/10/05 13:13:10;;;;;;;4.85;1.52;;;20.20;90.80;;;;;;6145968;22;96129;-76
2023/10/05 13:15:39;;;;;;;8.23;1.70;;;20.10;90.40;;;;;;6145480;22;96908;-77
2023/10/05 13:18:20;;;;;;;12.05;2.25;;;20.00;90.40;;;;;;6144279;22;92619;-83
2023/10/05 13:20:55;;;;;;;6.30;1.60;;;20.10;91.00;;;;;;6146936;22;92678;-76
2023/10/05 13:23:22;;;;;;;7.47;1.77;;;20.20;88.20;;;;;;6145668;22;94318;-77
2023/10/05 13:25:49;;;;;;;8.40;1.40;;;20.30;87.90;;;;;;6143782;22;95644;-77